Time;durP1;ratioP1;P1;durP2;ratioP2;P2;SDS_P1;SDS_P2;PMS_P1;PMS_P2;Temp;Humidity;BMP_temperature;BMP_pressure;BME280_temperature;BME280_humidity;BME280_pressure;Samples;Min_cycle;Max_cycle;Signal;HPM_P1;HPM_P2
2022/12/26 00:01:49;;;;;;;4.15;1.95;;;;;;;11.25;100.00;101325.66;5057803;28;20052;-78
2022/12/26 00:04:17;;;;;;;;;;;;;;;11.25;100.00;101333.44;5062529;28;20631;-79
2022/12/26 00:06:46;;;;;;;2.75;1.70;;;;;;;11.24;100.00;101331.66;5064661;28;20298;-78
2022/12/26 00:09:14;;;;;;;3.50;2.20;;;;;;;11.21;100.00;101318.59;5061546;28;20048;-78
2022/12/26 00:11:43;;;;;;;4.80;2.10;;;;;;;11.14;100.00;101319.22;5059004;28;20115;-78
2022/12/26 00:14:16;;;;;;;3.03;1.42;;;;;;;11.09;100.00;101322.50;5044455;28;20079;-78
2022/12/26 00:16:44;;;;;;;;;;;;;;;11.10;100.00;101321.66;5045287;28;20107;-77
2022/12/26 00:19:13;;;;;;;2.90;1.85;;;;;;;11.09;100.00;101313.84;5039017;28;19929;-76
2022/12/26 00:21:42;;;;;;;3.50;1.90;;;;;;;11.07;100.00;101316.38;5040492;28;20049;-78
2022/12/26 00:24:12;;;;;;;5.97;2.20;;;;;;;11.03;100.00;101304.16;5047594;28;20047;-76
2022/12/26 00:26:40;;;;;;;1.95;1.48;;;;;;;11.01;100.00;101300.63;5040879;28;20137;-75
2022/12/26 00:29:09;;;;;;;3.15;1.63;;;;;;;10.97;100.00;101300.44;5044604;28;20190;-75
2022/12/26 00:31:39;;;;;;;2.20;1.40;;;;;;;10.92;100.00;101287.34;5041673;28;20057;-76
2022/12/26 00:34:08;;;;;;;2.08;1.30;;;;;;;10.87;100.00;101286.28;5048190;28;20132;-75
2022/12/26 00:36:37;;;;;;;2.17;1.50;;;;;;;10.78;100.00;101285.94;5040367;28;20198;-76
2022/12/26 00:39:06;;;;;;;2.35;1.33;;;;;;;10.68;100.00;101298.56;5047622;28;20050;-75
2022/12/26 00:41:34;;;;;;;2.72;1.60;;;;;;;10.63;100.00;101315.63;5045418;28;20053;-74
2022/12/26 00:44:03;;;;;;;3.58;1.35;;;;;;;10.60;100.00;101328.41;5037452;28;20053;-77
2022/12/26 00:46:33;;;;;;;3.42;1.63;;;;;;;10.57;100.00;101353.31;5043387;28;20099;-75
2022/12/26 00:49:03;;;;;;;3.03;1.65;;;;;;;10.56;100.00;101373.13;5040994;28;20137;-77
2022/12/26 00:51:32;;;;;;;2.47;1.30;;;;;;;10.54;100.00;101381.66;5043194;28;20057;-75
2022/12/26 00:54:00;;;;;;;4.20;1.27;;;;;;;10.56;100.00;101400.69;5023199;28;20568;-75
2022/12/26 00:56:29;;;;;;;2.78;1.40;;;;;;;10.55;100.00;101397.22;5029126;28;20441;-76
2022/12/26 00:58:57;;;;;;;2.38;1.67;;;;;;;10.51;100.00;101384.13;5025166;28;20131;-75
2022/12/26 01:01:29;;;;;;;2.67;1.55;;;;;;;10.44;100.00;101362.28;5027885;28;20719;-74
2022/12/26 01:03:59;;;;;;;5.13;1.80;;;;;;;10.49;100.00;101376.31;5029495;28;20052;-74
2022/12/26 01:06:29;;;;;;;4.65;1.65;;;;;;;10.47;100.00;101365.88;5025813;28;20049;-74
2022/12/26 01:08:58;;;;;;;3.50;1.52;;;;;;;10.48;100.00;101366.75;5032148;28;20072;-74
2022/12/26 01:11:40;;;;;;;4.80;1.30;;;;;;;10.46;100.00;101356.34;5031058;28;20915;-78
2022/12/26 01:14:11;;;;;;;3.13;1.50;;;;;;;10.44;100.00;101357.09;5030843;28;20095;-80
2022/12/26 01:16:41;;;;;;;3.78;1.67;;;;;;;10.39;100.00;101358.63;5030088;28;20590;-79
2022/12/26 01:19:11;;;;;;;1.48;0.85;;;;;;;10.38;100.00;101343.94;5024463;28;20049;-77
2022/12/26 01:21:41;;;;;;;2.55;1.30;;;;;;;10.35;100.00;101338.63;5033374;28;20139;-77
2022/12/26 01:24:10;;;;;;;3.30;1.55;;;;;;;10.29;100.00;101325.47;5026243;28;20049;-76
2022/12/26 01:26:39;;;;;;;2.35;1.30;;;;;;;10.19;100.00;101312.16;5028599;28;20112;-75
2022/12/26 01:29:08;;;;;;;3.78;1.20;;;;;;;10.11;100.00;101328.19;5028172;28;20659;-76
2022/12/26 01:31:37;;;;;;;4.47;1.55;;;;;;;10.09;100.00;101322.06;5027895;28;20049;-75
2022/12/26 01:34:05;;;;;;;2.97;1.63;;;;;;;10.03;100.00;101312.34;5029618;28;20045;-75
2022/12/26 01:36:34;;;;;;;2.42;1.65;;;;;;;9.97;100.00;101312.09;5027152;28;20052;-75
2022/12/26 01:39:04;;;;;;;3.33;1.50;;;;;;;9.94;100.00;101306.78;5027424;28;20710;-74
2022/12/26 01:41:40;;;;;;;3.55;1.73;;;;;;;9.90;100.00;101292.00;5029513;28;20168;-74
2022/12/26 01:44:46;;;;;;;4.30;1.70;;;;;;;9.92;100.00;101278.31;5030189;28;20115;-76
2022/12/26 01:47:15;;;;;;;5.78;2.50;;;;;;;9.93;100.00;101274.00;5024490;28;20050;-77
2022/12/26 01:49:46;;;;;;;3.28;2.30;;;;;;;9.89;100.00;101262.66;5025214;28;20491;-75
2022/12/26 01:52:22;;;;;;;4.20;2.63;;;;;;;9.92;100.00;101272.22;5032551;28;20057;-74
2022/12/26 01:54:55;;;;;;;5.30;2.67;;;;;;;9.94;100.00;101270.59;5027252;28;20128;-75
2022/12/26 01:57:28;;;;;;;5.93;3.25;;;;;;;10.02;100.00;101258.88;5026579;28;20060;-76
2022/12/26 01:59:59;;;;;;;6.65;3.28;;;;;;;10.08;100.00;101251.38;5029521;28;20045;-77
2022/12/26 02:02:29;;;;;;;6.57;3.67;;;;;;;10.15;100.00;101255.09;5029188;28;20546;-74
2022/12/26 02:07:46;;;;;;;7.68;3.10;;;;;;;10.26;100.00;101233.06;5028224;28;20060;-74
2022/12/26 02:10:22;;;;;;;3.88;2.63;;;;;;;10.23;100.00;101232.97;5026103;28;20048;-75
2022/12/26 02:12:53;;;;;;;6.10;3.40;;;;;;;10.29;100.00;101248.75;5029644;28;20095;-77
2022/12/26 02:15:22;;;;;;;4.97;3.72;;;;;;;10.30;100.00;101241.88;5034191;28;20059;-77
2022/12/26 02:17:50;;;;;;;5.10;3.42;;;;;;;10.30;100.00;101235.00;5026106;28;20491;-75
2022/12/26 02:20:22;;;;;;;4.63;2.95;;;;;;;10.28;100.00;101246.94;5029146;28;20111;-74
2022/12/26 02:23:35;;;;;;;7.95;3.67;;;;;;;10.24;100.00;101247.69;5028605;28;20060;-75
2022/12/26 02:26:36;;;;;;;6.30;2.92;;;;;;;10.26;100.00;101254.66;5023173;28;20061;-74
2022/12/26 02:29:59;;;;;;;3.05;2.30;;;;;;;10.30;100.00;101252.22;5029427;28;20045;-76
2022/12/26 02:33:02;;;;;;;4.45;2.05;;;;;;;10.26;100.00;101244.31;5024337;28;20500;-75
2022/12/26 02:35:45;;;;;;;2.95;1.90;;;;;;;10.23;100.00;101227.78;5027297;28;21154;-78
2022/12/26 02:38:25;;;;;;;2.67;1.77;;;;;;;10.24;100.00;101217.53;5027776;28;20418;-73
2022/12/26 02:41:03;;;;;;;2.45;1.80;;;;;;;10.21;100.00;101206.16;5020550;28;20427;-75
2022/12/26 02:43:38;;;;;;;4.05;2.50;;;;;;;10.17;100.00;101197.41;5010524;28;20053;-74
2022/12/26 02:49:12;;;;;;;3.42;2.03;;;;;;;10.20;100.00;101181.13;5005683;28;20056;-75
2022/12/26 03:14:29;;;;;;;5.82;3.58;;;;;;;10.18;100.00;101256.06;4997899;28;20145;-74
2022/12/26 03:20:01;;;;;;;7.30;3.63;;;;;;;10.19;100.00;101206.13;5005168;28;20065;-75
2022/12/26 03:22:37;;;;;;;9.82;3.10;;;;;;;10.21;100.00;101188.06;5003280;28;20050;-75
2022/12/26 03:28:02;;;;;;;8.23;4.18;;;;;;;10.19;100.00;101237.16;4959988;28;20053;-76
2022/12/26 03:30:48;;;;;;;6.30;3.95;;;;;;;10.13;100.00;101221.41;5001996;28;20656;-75
2022/12/26 03:36:03;;;;;;;6.45;3.75;;;;;;;10.20;100.00;101232.84;5012295;28;20052;-72
2022/12/26 03:38:38;;;;;;;5.85;3.83;;;;;;;10.21;100.00;101229.44;5004341;28;20057;-71
2022/12/26 04:44:15;;;;;;;9.20;5.22;;;;;;;10.01;100.00;101120.97;5009465;28;20052;-72
2022/12/26 04:46:48;;;;;;;8.02;4.18;;;;;;;9.97;100.00;101115.63;5012435;28;20054;-72
2022/12/26 04:52:06;;;;;;;7.07;4.10;;;;;;;9.81;100.00;101094.38;5011317;28;20053;-73
2022/12/26 04:54:35;;;;;;;10.50;4.30;;;;;;;9.84;100.00;101094.47;5006038;28;20054;-74
2022/12/26 04:57:04;;;;;;;8.63;3.85;;;;;;;9.84;100.00;101098.78;5014289;28;20116;-74
2022/12/26 04:59:32;;;;;;;7.93;4.50;;;;;;;9.88;100.00;101089.44;5017333;28;20049;-74
2022/12/26 05:10:36;;;;;;;7.13;3.83;;;;;;;9.72;100.00;101087.97;4950326;28;20054;-74
2022/12/26 05:13:04;;;;;;;7.55;4.05;;;;;;;9.76;100.00;101100.19;4950165;28;20054;-71
2022/12/26 05:28:40;;;;;;;9.38;4.53;;;;;;;9.78;100.00;101089.09;4974418;28;20503;-72
2022/12/26 05:29:29;;;;;;;11.77;4.53;;;;;;;9.89;100.00;101091.19;5010335;28;20169;-73
2022/12/26 05:31:58;;;;;;;13.57;6.25;;;;;;;9.89;100.00;101083.44;5010987;28;20041;-72
2022/12/26 05:34:27;;;;;;;10.48;5.18;;;;;;;9.90;100.00;101087.81;5007433;28;20052;-73
2022/12/26 05:36:57;;;;;;;12.82;6.00;;;;;;;9.91;100.00;101074.03;5009692;28;21157;-72
2022/12/26 05:39:26;;;;;;;8.65;4.43;;;;;;;9.94;100.00;101075.03;5008929;28;20515;-73
2022/12/26 05:41:55;;;;;;;14.18;4.38;;;;;;;9.94;100.00;101079.31;5005319;28;20054;-73
2022/12/26 05:44:23;;;;;;;8.32;4.63;;;;;;;9.92;100.00;101078.38;5000657;28;20054;-72
2022/12/26 05:46:52;;;;;;;8.15;3.88;;;;;;;9.93;100.00;101064.63;5007828;28;20038;-71
2022/12/26 05:49:21;;;;;;;9.07;4.50;;;;;;;9.88;100.00;101061.00;5008157;28;20042;-72
2022/12/26 05:51:51;;;;;;;6.05;3.83;;;;;;;9.86;100.00;101059.22;5009623;28;20049;-75
2022/12/26 05:54:20;;;;;;;11.43;5.10;;;;;;;9.85;100.00;101047.16;5015541;28;20053;-73
2022/12/26 05:56:49;;;;;;;11.07;5.75;;;;;;;9.84;100.00;101044.50;5015662;28;20506;-71
2022/12/26 05:59:18;;;;;;;14.45;5.43;;;;;;;9.81;100.00;101031.47;5009314;28;20389;-72
2022/12/26 06:01:46;;;;;;;14.75;6.38;;;;;;;9.85;100.00;101033.34;5012998;28;20076;-72
2022/12/26 06:04:15;;;;;;;12.07;6.22;;;;;;;9.88;100.00;101032.59;5009307;28;20150;-71
2022/12/26 06:06:44;;;;;;;10.63;5.10;;;;;;;9.89;100.00;101055.00;5006595;28;20046;-71
2022/12/26 06:09:14;;;;;;;11.20;5.35;;;;;;;9.83;100.00;101030.69;5007625;28;20041;-71
2022/12/26 06:11:43;;;;;;;11.40;6.15;;;;;;;9.89;100.00;101023.97;5007586;28;20053;-72
2022/12/26 06:14:11;;;;;;;10.73;5.53;;;;;;;9.86;100.00;101041.13;5006432;28;20047;-72
2022/12/26 06:16:40;;;;;;;11.75;6.95;;;;;;;9.84;100.00;101047.06;5014036;28;20059;-72
2022/12/26 06:19:08;;;;;;;11.15;5.43;;;;;;;9.84;100.00;101036.75;5007892;28;20041;-71
2022/12/26 06:21:37;;;;;;;14.18;5.65;;;;;;;9.84;100.00;101032.44;5008350;28;20520;-71
2022/12/26 06:24:07;;;;;;;11.13;5.30;;;;;;;9.85;100.00;101021.31;4989283;28;20049;-73
2022/12/26 06:26:38;;;;;;;12.63;5.80;;;;;;;9.89;100.00;101011.06;5011299;28;20050;-72
2022/12/26 06:29:06;;;;;;;12.50;5.72;;;;;;;9.91;100.00;101001.66;5007172;28;20538;-73
2022/12/26 06:31:35;;;;;;;7.50;4.22;;;;;;;9.90;100.00;101015.44;4996246;28;20049;-73
2022/12/26 06:34:03;;;;;;;9.13;5.18;;;;;;;9.83;100.00;101020.34;5015119;28;20135;-74
2022/12/26 06:36:32;;;;;;;9.93;5.72;;;;;;;9.83;100.00;101020.34;5011259;28;20042;-72
2022/12/26 06:39:01;;;;;;;17.05;6.72;;;;;;;9.86;100.00;100999.78;5015144;28;20045;-74
2022/12/26 06:41:30;;;;;;;17.20;5.57;;;;;;;9.84;100.00;100988.50;5001701;28;20054;-74
2022/12/26 06:44:00;;;;;;;9.93;5.35;;;;;;;9.82;100.00;100994.44;4987805;28;20051;-73
2022/12/26 06:46:29;;;;;;;15.18;5.80;;;;;;;9.79;100.00;100995.22;4986657;28;20097;-74
2022/12/26 06:48:57;;;;;;;9.73;5.18;;;;;;;9.81;100.00;100995.28;4990375;28;20051;-73
2022/12/26 06:51:27;;;;;;;10.60;5.00;;;;;;;9.83;100.00;100989.34;4986434;28;20058;-73
2022/12/26 06:53:56;;;;;;;11.05;5.30;;;;;;;9.85;100.00;101003.22;4985363;28;20047;-72
2022/12/26 06:56:26;;;;;;;11.90;5.65;;;;;;;9.78;100.00;101016.75;4986812;28;20063;-73
2022/12/26 06:58:55;;;;;;;13.48;6.10;;;;;;;9.85;100.00;101031.63;4991299;28;20048;-74
2022/12/26 07:01:26;;;;;;;13.63;6.95;;;;;;;9.83;100.00;101004.84;4985016;28;20052;-74
2022/12/26 07:03:55;;;;;;;16.10;7.38;;;;;;;9.80;100.00;101016.78;4990775;28;20601;-74
2022/12/26 07:06:26;;;;;;;12.45;6.43;;;;;;;9.81;100.00;101032.34;4987868;28;20077;-74
2022/12/26 07:08:57;;;;;;;14.48;7.18;;;;;;;9.81;100.00;101040.09;4989158;28;21169;-74
2022/12/26 07:11:28;;;;;;;19.50;8.60;;;;;;;9.84;100.00;101019.53;4988723;28;20084;-75
2022/12/26 07:13:57;;;;;;;18.85;8.00;;;;;;;9.87;100.00;101023.91;4986012;28;20041;-72
2022/12/26 07:16:27;;;;;;;14.77;7.35;;;;;;;9.89;100.00;101016.22;4988076;28;20051;-73
2022/12/26 07:18:58;;;;;;;12.25;6.55;;;;;;;9.89;100.00;101000.72;4985916;28;20153;-73
2022/12/26 07:21:27;;;;;;;15.25;7.03;;;;;;;9.90;100.00;100989.59;4982209;28;20089;-73
2022/12/26 07:23:56;;;;;;;17.52;6.43;;;;;;;9.88;100.00;100986.06;4988559;28;20054;-72
2022/12/26 07:26:26;;;;;;;14.85;6.57;;;;;;;9.79;100.00;100992.63;4988772;28;20061;-73
2022/12/26 07:28:55;;;;;;;14.00;7.03;;;;;;;9.76;100.00;100999.41;4986476;28;20629;-72
2022/12/26 07:31:26;;;;;;;12.95;6.75;;;;;;;9.78;100.00;100998.66;4983518;28;20463;-73
2022/12/26 07:33:56;;;;;;;15.07;6.40;;;;;;;9.79;100.00;100997.81;4988019;28;20111;-73
2022/12/26 07:36:25;;;;;;;23.50;8.27;;;;;;;9.81;100.00;100993.56;4982819;28;20060;-73
2022/12/26 07:38:54;;;;;;;16.35;8.10;;;;;;;9.84;100.00;101000.56;4989293;28;20084;-73
2022/12/26 07:44:09;;;;;;;18.58;7.97;;;;;;;9.88;100.00;100989.50;5009415;28;20089;-72
2022/12/26 07:46:40;;;;;;;18.00;7.03;;;;;;;9.83;100.00;100979.00;5004091;28;20649;-73
2022/12/26 07:49:09;;;;;;;15.85;7.13;;;;;;;9.77;100.00;100971.03;5005005;28;20115;-74
2022/12/26 07:51:38;;;;;;;20.15;7.03;;;;;;;9.72;100.00;100962.22;5011697;28;20075;-75
2022/12/26 07:54:07;;;;;;;13.85;6.97;;;;;;;9.73;100.00;100963.09;5009295;28;20042;-72
2022/12/26 07:56:36;;;;;;;16.20;6.72;;;;;;;9.73;100.00;100951.06;5010958;28;20049;-73
2022/12/26 07:59:04;;;;;;;14.90;6.63;;;;;;;9.74;100.00;100946.78;5005806;28;20061;-73
2022/12/26 08:01:33;;;;;;;17.15;5.85;;;;;;;9.76;100.00;100935.69;5012821;28;20052;-73
2022/12/26 08:04:03;;;;;;;15.82;6.60;;;;;;;9.74;100.00;100950.25;5014562;28;20049;-72
2022/12/26 08:06:32;;;;;;;14.70;6.72;;;;;;;9.75;100.00;100948.53;5011021;28;20064;-72
2022/12/26 08:09:00;;;;;;;12.95;6.05;;;;;;;9.78;100.00;100959.88;5012427;28;20503;-73
2022/12/26 08:11:30;;;;;;;12.07;5.45;;;;;;;9.78;100.00;100959.88;5005741;28;20671;-73
2022/12/26 08:13:58;;;;;;;7.55;4.47;;;;;;;9.78;100.00;100962.47;5013888;28;20049;-74
2022/12/26 08:16:27;;;;;;;9.73;4.53;;;;;;;9.82;100.00;100981.53;5013981;28;20046;-75
2022/12/26 08:18:59;;;;;;;11.48;4.90;;;;;;;9.81;100.00;100975.50;5012565;28;20095;-73
2022/12/26 08:21:30;;;;;;;8.13;4.63;;;;;;;9.72;100.00;100949.31;5008358;28;20049;-71
2022/12/26 08:23:59;;;;;;;8.70;3.90;;;;;;;9.64;100.00;100942.97;5011177;28;20124;-71
2022/12/26 08:26:27;;;;;;;10.80;4.55;;;;;;;9.57;100.00;100933.25;5012415;28;20065;-71
2022/12/26 08:28:58;;;;;;;6.65;3.70;;;;;;;9.53;100.00;100916.78;5004649;28;20599;-71
2022/12/26 08:31:26;;;;;;;5.55;3.22;;;;;;;9.50;100.00;100908.91;5009117;28;20141;-72
2022/12/26 08:33:57;;;;;;;7.53;3.53;;;;;;;9.47;100.00;100900.19;5006114;28;20053;-72
2022/12/26 08:36:26;;;;;;;4.93;3.15;;;;;;;9.47;100.00;100898.47;5018075;28;20576;-71
2022/12/26 08:38:56;;;;;;;6.65;3.42;;;;;;;9.50;100.00;100882.19;5007672;28;20491;-72
2022/12/26 08:41:25;;;;;;;5.05;2.88;;;;;;;9.54;100.00;100873.75;5009409;28;20507;-71
2022/12/26 08:43:54;;;;;;;6.47;3.33;;;;;;;9.55;100.00;100862.56;5013729;28;20042;-71
2022/12/26 08:46:23;;;;;;;5.75;3.25;;;;;;;9.57;100.00;100860.91;5003893;28;20123;-72
2022/12/26 08:48:53;;;;;;;5.93;3.30;;;;;;;9.60;100.00;100850.72;5010311;28;20058;-71
2022/12/26 08:51:23;;;;;;;5.40;3.40;;;;;;;9.63;100.00;100835.31;5009615;28;20289;-71
2022/12/26 08:53:53;;;;;;;6.47;2.95;;;;;;;9.64;100.00;100831.88;5009662;28;20054;-71
2022/12/26 08:56:26;;;;;;;4.50;2.90;;;;;;;9.67;100.00;100836.28;5010261;28;20041;-71
2022/12/26 08:58:55;;;;;;;4.95;3.03;;;;;;;9.68;100.00;100826.00;5005182;28;20488;-71
2022/12/26 09:01:25;;;;;;;5.25;2.72;;;;;;;9.69;100.00;100825.19;5006246;28;20064;-71
2022/12/26 09:03:55;;;;;;;5.75;3.20;;;;;;;9.70;100.00;100811.44;5015615;28;20636;-71
2022/12/26 09:06:23;;;;;;;6.28;3.75;;;;;;;9.73;100.00;100787.41;5012730;28;20042;-71
2022/12/26 09:08:52;;;;;;;7.18;3.60;;;;;;;9.75;100.00;100780.59;5009706;28;20058;-71
2022/12/26 09:11:25;;;;;;;7.75;3.45;;;;;;;9.70;100.00;100770.09;5009300;28;20710;-71
2022/12/26 09:13:55;;;;;;;9.10;3.97;;;;;;;9.74;100.00;100764.22;5010798;28;20076;-71
2022/12/26 09:16:25;;;;;;;5.68;3.42;;;;;;;9.76;100.00;100759.97;5012050;28;20053;-72
2022/12/26 09:18:56;;;;;;;6.18;3.47;;;;;;;9.77;100.00;100758.25;5007244;28;20708;-72
2022/12/26 09:21:25;;;;;;;7.57;3.92;;;;;;;9.76;100.00;100759.97;5002862;28;20139;-71
2022/12/26 09:23:58;;;;;;;6.45;3.55;;;;;;;9.76;100.00;100765.13;5009874;28;20054;-72
2022/12/26 09:26:29;;;;;;;10.38;3.50;;;;;;;9.75;100.00;100771.13;5009277;28;20096;-71
2022/12/26 09:28:58;;;;;;;6.50;3.72;;;;;;;9.77;100.00;100777.22;5009691;28;20076;-71
2022/12/26 09:31:28;;;;;;;8.10;3.55;;;;;;;9.79;100.00;100760.06;5009749;28;20049;-71
2022/12/26 09:33:57;;;;;;;9.43;3.58;;;;;;;9.81;100.00;100754.97;4998713;28;20049;-71
2022/12/26 09:36:28;;;;;;;9.25;3.95;;;;;;;9.83;100.00;100750.72;5005443;28;20073;-71
2022/12/26 09:38:58;;;;;;;6.90;3.47;;;;;;;9.84;100.00;100745.56;5007029;28;20471;-72
2022/12/26 09:41:53;;;;;;;6.47;3.85;;;;;;;9.85;100.00;100742.19;5009768;28;20499;-71
2022/12/26 09:44:25;;;;;;;6.53;3.30;;;;;;;9.88;100.00;100730.19;5010502;28;20412;-71
2022/12/26 09:47:01;;;;;;;;;;;;;;;9.89;100.00;100729.34;5009426;28;20684;-71
2022/12/26 09:49:35;;;;;;;6.70;3.63;;;;;;;9.90;100.00;100725.94;5012111;28;19929;-71
2022/12/26 09:52:09;;;;;;;6.03;3.58;;;;;;;9.93;100.00;100720.88;5012492;28;20144;-71
2022/12/26 09:54:41;;;;;;;6.03;3.75;;;;;;;9.95;100.00;100719.22;5009912;28;20467;-71
2022/12/26 09:57:17;;;;;;;5.88;3.22;;;;;;;9.95;100.00;100719.22;5010709;28;20109;-72
2022/12/26 09:59:50;;;;;;;6.47;3.20;;;;;;;9.95;100.00;100714.91;5009370;28;20112;-71
2022/12/26 10:02:21;;;;;;;6.40;3.80;;;;;;;9.97;100.00;100702.03;5006795;28;20062;-71
2022/12/26 10:04:50;;;;;;;6.43;3.72;;;;;;;9.97;100.00;100697.75;5007661;28;20073;-71
2022/12/26 10:07:26;;;;;;;9.35;3.58;;;;;;;9.97;100.00;100707.22;5003654;28;20558;-71
2022/12/26 10:10:05;;;;;;;8.18;3.60;;;;;;;9.98;100.00;100703.78;5014545;28;20050;-71
2022/12/26 10:12:50;;;;;;;13.27;4.45;;;;;;;9.99;100.00;100710.72;5007857;28;20055;-71
2022/12/26 10:15:32;;;;;;;8.57;4.15;;;;;;;10.01;100.00;100721.97;5012677;28;20103;-71
2022/12/26 10:18:13;;;;;;;7.35;4.07;;;;;;;10.00;100.00;100713.34;5012228;28;20061;-71
2022/12/26 10:21:02;;;;;;;7.70;4.20;;;;;;;10.02;100.00;100713.41;5010125;28;20041;-71
2022/12/26 10:23:33;;;;;;;6.22;3.90;;;;;;;10.03;100.00;100717.72;5006808;28;20147;-70
2022/12/26 10:26:09;;;;;;;7.07;3.55;;;;;;;10.03;100.00;100712.56;5007980;28;20053;-70
2022/12/26 10:28:43;;;;;;;6.90;3.97;;;;;;;10.05;100.00;100718.66;5008812;28;20049;-71
2022/12/26 10:31:18;;;;;;;7.03;3.67;;;;;;;10.07;100.00;100704.06;5009925;28;20057;-71
2022/12/26 10:33:54;;;;;;;7.80;3.60;;;;;;;10.10;100.00;100711.94;5007875;28;20109;-71
2022/12/26 10:36:33;;;;;;;6.18;3.65;;;;;;;10.12;100.00;100709.38;5012369;28;20054;-71
2022/12/26 10:39:03;;;;;;;7.32;3.92;;;;;;;10.13;100.00;100705.97;5008546;28;20130;-70
2022/12/26 10:41:40;;;;;;;5.28;3.55;;;;;;;10.14;100.00;100707.72;5005255;28;21197;-71
2022/12/26 10:44:13;;;;;;;6.70;3.80;;;;;;;10.15;100.00;100712.09;5006837;28;20050;-70
2022/12/26 10:46:52;;;;;;;;;;;;;;;10.12;100.00;100706.78;5011215;28;20053;-71
2022/12/26 10:49:24;;;;;;;6.25;3.47;;;;;;;10.11;100.00;100716.25;5016355;28;19956;-70
2022/12/26 10:51:55;;;;;;;6.38;3.63;;;;;;;10.13;100.00;100719.78;5013428;28;20057;-70
2022/12/26 10:54:24;;;;;;;5.57;3.58;;;;;;;10.15;100.00;100727.59;5011399;28;20042;-70
2022/12/26 10:56:54;;;;;;;5.88;3.55;;;;;;;10.11;100.00;100742.13;5004896;28;20728;-70
2022/12/26 10:59:29;;;;;;;9.13;4.03;;;;;;;10.07;100.00;100724.75;5010432;28;20057;-71
2022/12/26 11:02:14;;;;;;;7.03;3.30;;;;;;;9.99;100.00;100705.56;5007133;28;20060;-70
2022/12/26 11:04:59;;;;;;;6.07;3.55;;;;;;;9.96;100.00;100705.44;5002530;28;20069;-71
2022/12/26 11:07:31;;;;;;;4.85;3.25;;;;;;;9.98;100.00;100701.19;5006217;28;20750;-70
2022/12/26 11:10:00;;;;;;;6.80;3.92;;;;;;;9.91;100.00;100697.56;5013210;28;20550;-70
2022/12/26 11:12:38;;;;;;;6.32;3.95;;;;;;;9.97;100.00;100707.22;5009442;28;20408;-71
2022/12/26 11:15:19;;;;;;;6.22;3.80;;;;;;;9.97;100.00;100690.00;5010014;28;20045;-71
2022/12/26 11:17:51;;;;;;;6.10;3.17;;;;;;;9.99;100.00;100683.16;5006525;28;20054;-70
2022/12/26 11:20:31;;;;;;;3.92;3.13;;;;;;;10.04;100.00;100683.31;5010918;28;20136;-71
2022/12/26 11:23:21;;;;;;;4.63;3.03;;;;;;;10.08;100.00;100672.22;5008589;28;20147;-70
2022/12/26 11:25:51;;;;;;;6.43;3.80;;;;;;;10.09;100.00;100675.69;5012131;28;20129;-71
2022/12/26 11:28:38;;;;;;;5.70;3.08;;;;;;;10.12;100.00;100668.00;5009451;28;20591;-71
2022/12/26 11:31:20;;;;;;;6.78;3.72;;;;;;;10.10;100.00;100652.47;5006830;28;20050;-71
2022/12/26 11:33:49;;;;;;;4.88;2.72;;;;;;;10.11;100.00;100656.81;5002966;28;20061;-71
2022/12/26 11:36:21;;;;;;;4.53;2.92;;;;;;;10.22;100.00;100652.81;5009793;28;20495;-71
2022/12/26 11:38:52;;;;;;;;;;;;;;;10.29;100.00;100642.72;5008539;28;20486;-71
2022/12/26 11:41:38;;;;;;;7.82;5.53;;;;;;;10.33;100.00;100649.69;5009817;28;20354;-71
2022/12/26 11:44:17;;;;;;;5.40;3.47;;;;;;;10.41;100.00;100646.50;5002726;28;20056;-71
2022/12/26 11:46:51;;;;;;;6.88;3.17;;;;;;;10.49;100.00;100631.22;5007188;28;20057;-71
2022/12/26 11:49:27;;;;;;;4.60;2.88;;;;;;;10.58;100.00;100626.28;5014965;28;20444;-71
2022/12/26 11:51:55;;;;;;;4.20;2.42;;;;;;;10.67;100.00;100631.72;5011153;28;20049;-70
2022/12/26 11:54:27;;;;;;;3.75;2.30;;;;;;;10.77;100.00;100630.25;5008441;28;20632;-71
2022/12/26 11:57:19;;;;;;;3.42;2.15;;;;;;;10.85;100.00;100636.47;5006863;28;20146;-70
2022/12/26 11:59:48;;;;;;;7.25;2.42;;;;;;;10.93;100.00;100638.41;5007841;28;20052;-70
2022/12/26 12:02:25;;;;;;;3.50;2.35;;;;;;;10.99;100.00;100639.44;5007844;28;20053;-70
2022/12/26 12:04:56;;;;;;;4.10;2.30;;;;;;;11.04;100.00;100631.78;5004918;28;20053;-70
2022/12/26 12:07:57;;;;;;;4.20;2.80;;;;;;;11.12;100.00;100630.28;5008328;28;20143;-70
2022/12/26 12:10:58;;;;;;;4.05;2.92;;;;;;;11.18;100.00;100619.19;5005405;28;20061;-70
2022/12/26 12:13:46;;;;;;;2.63;2.15;;;;;;;11.24;100.00;100624.53;4992437;28;20689;-71
2022/12/26 12:16:37;;;;;;;3.33;2.03;;;;;;;11.27;100.00;100629.75;5009878;28;20137;-71
2022/12/26 12:19:21;;;;;;;4.00;2.38;;;;;;;11.31;100.00;100626.41;4993335;28;20049;-70
2022/12/26 12:22:18;;;;;;;7.13;2.63;;;;;;;11.36;100.00;100637.78;5011401;28;20041;-71
2022/12/26 12:25:17;;;;;;;7.50;2.40;;;;;;;11.39;100.00;100619.72;5006319;28;20562;-71
2022/12/26 12:27:52;;;;;;;22.67;3.25;;;;;;;11.42;100.00;100613.72;5006393;28;20045;-71
2022/12/26 12:30:23;;;;;;;6.78;2.15;;;;;;;11.43;100.00;100611.19;5006318;28;20700;-71
2022/12/26 12:33:10;;;;;;;6.43;2.10;;;;;;;11.46;100.00;100623.34;5006707;28;20107;-71
2022/12/26 12:35:54;;;;;;;3.72;2.00;;;;;;;11.48;100.00;100619.06;5008272;28;20416;-70
2022/12/26 12:38:30;;;;;;;7.50;2.40;;;;;;;11.49;100.00;100611.31;5004796;28;20483;-71
2022/12/26 12:41:32;;;;;;;2.20;1.52;;;;;;;11.52;100.00;100598.44;5005401;28;20042;-71
2022/12/26 12:44:09;;;;;;;2.28;1.73;;;;;;;11.53;100.00;100597.59;4980184;28;20582;-71
2022/12/26 12:46:55;;;;;;;3.63;1.75;;;;;;;11.55;100.00;100595.03;5012681;28;20050;-71
2022/12/26 12:49:36;;;;;;;1.83;1.45;;;;;;;11.60;100.00;100593.44;5015680;28;20528;-71
2022/12/26 12:52:20;;;;;;;3.08;1.20;;;;;;;11.64;100.00;100579.72;5015043;28;20045;-70
2022/12/26 12:55:21;;;;;;;2.05;1.60;;;;;;;11.67;100.00;100586.66;5012923;28;20041;-71
2022/12/26 12:57:54;;;;;;;2.25;1.45;;;;;;;11.69;100.00;100574.63;5007540;28;20057;-71
2022/12/26 13:00:26;;;;;;;2.30;1.30;;;;;;;11.73;100.00;100589.41;5008418;28;20046;-71
2022/12/26 13:03:00;;;;;;;1.75;1.33;;;;;;;11.77;100.00;100591.19;5014851;28;20058;-70
2022/12/26 13:05:39;;;;;;;2.60;1.15;;;;;;;11.82;100.00;100588.72;5013234;28;20053;-71
2022/12/26 13:08:16;;;;;;;1.20;0.95;;;;;;;11.88;100.00;100584.56;5011412;28;20038;-71
2022/12/26 13:10:52;;;;;;;1.60;1.25;;;;;;;11.93;100.00;100589.84;5007918;28;20057;-70
2022/12/26 13:13:26;;;;;;;4.05;1.02;;;;;;;11.98;100.00;100587.34;5011764;28;20077;-71
2022/12/26 13:15:59;;;;;;;2.25;1.30;;;;;;;12.02;100.00;100586.59;5013580;28;20080;-71
2022/12/26 13:18:32;;;;;;;2.45;1.40;;;;;;;12.06;100.00;100588.41;5004544;28;20080;-71
2022/12/26 13:21:05;;;;;;;1.60;1.05;;;;;;;12.10;100.00;100593.69;5014569;28;20490;-71
2022/12/26 13:26:27;;;;;;;1.80;1.30;;;;;;;12.15;100.00;100593.78;5026429;28;20444;-71
2022/12/26 13:29:01;;;;;;;2.38;1.52;;;;;;;12.17;100.00;100591.22;5027664;28;20138;-71
2022/12/26 13:31:34;;;;;;;1.80;1.42;;;;;;;12.20;100.00;100570.53;5032552;28;20808;-71
2022/12/26 13:34:03;;;;;;;2.20;1.42;;;;;;;12.21;100.00;100567.06;5031187;28;20625;-72
2022/12/26 13:36:37;;;;;;;1.95;1.48;;;;;;;12.19;100.00;100564.47;5027076;28;20104;-71
2022/12/26 13:39:42;;;;;;;5.68;1.58;;;;;;;12.18;100.00;100561.84;5025398;28;20061;-71
2022/12/26 13:45:49;;;;;;;1.85;0.80;;;;;;;12.24;100.00;100572.34;5013896;28;20109;-71
2022/12/26 13:49:02;;;;;;;1.25;0.90;;;;;;;12.29;100.00;100575.91;5017250;28;20053;-71
2022/12/26 13:51:50;;;;;;;;;;;;;;;12.32;100.00;100581.13;5016589;28;20525;-71
2022/12/26 13:54:22;;;;;;;2.47;1.00;;;;;;;12.34;100.00;100575.13;5008920;28;19932;-70
2022/12/26 13:57:32;;;;;;;1.33;0.80;;;;;;;12.38;100.00;100575.19;5007600;28;20050;-71
2022/12/26 14:00:07;;;;;;;1.25;1.00;;;;;;;12.41;100.00;100588.22;5012500;28;20048;-71
2022/12/26 14:03:10;;;;;;;4.32;1.02;;;;;;;12.41;100.00;100598.59;5033176;28;20072;-71
2022/12/26 14:05:45;;;;;;;0.65;0.63;;;;;;;12.39;100.00;100588.19;5030117;28;20081;-70